sensor_id;sensor_type;location;lat;lon;timestamp;pressure;altitude;pressure_sealevel;temperature;humidity
20612;BME280;10465;42.686;23.364;2022-12-10T00:00:41;94333.63;;;9.78;90.10
20612;BME280;10465;42.686;23.364;2022-12-10T00:03:07;94358.03;;;10.01;90.06
20612;BME280;10465;42.686;23.364;2022-12-10T00:05:34;94353.50;;;10.10;89.75
20612;BME280;10465;42.686;23.364;2022-12-10T00:07:59;94355.34;;;10.19;88.73
20612;BME280;10465;42.686;23.364;2022-12-10T00:10:25;94352.09;;;10.22;88.96
20612;BME280;10465;42.686;23.364;2022-12-10T00:12:50;94362.56;;;9.66;91.67
20612;BME280;10465;42.686;23.364;2022-12-10T00:15:16;94359.44;;;9.99;90.88
20612;BME280;10465;42.686;23.364;2022-12-10T00:17:42;94348.06;;;9.98;90.11
20612;BME280;10465;42.686;23.364;2022-12-10T00:20:08;94329.84;;;10.14;89.67
20612;BME280;10465;42.686;23.364;2022-12-10T00:22:33;94340.75;;;10.30;89.00
20612;BME280;10465;42.686;23.364;2022-12-10T00:24:59;94321.44;;;10.12;88.61
20612;BME280;10465;42.686;23.364;2022-12-10T00:27:24;94334.03;;;10.32;88.66
20612;BME280;10465;42.686;23.364;2022-12-10T00:29:50;94306.22;;;10.00;89.23
20612;BME280;10465;42.686;23.364;2022-12-10T00:32:15;94330.31;;;10.16;89.68
20612;BME280;10465;42.686;23.364;2022-12-10T00:34:41;94367.66;;;10.32;88.97
20612;BME280;10465;42.686;23.364;2022-12-10T00:37:06;94358.94;;;10.31;89.05
20612;BME280;10465;42.686;23.364;2022-12-10T00:39:31;94351.16;;;10.35;88.97
20612;BME280;10465;42.686;23.364;2022-12-10T00:41:57;94337.94;;;10.35;88.54
20612;BME280;10465;42.686;23.364;2022-12-10T00:44:22;94334.22;;;10.27;88.96
20612;BME280;10465;42.686;23.364;2022-12-10T00:46:48;94367.47;;;10.37;88.66
20612;BME280;10465;42.686;23.364;2022-12-10T00:49:14;94355.16;;;10.41;88.56
20612;BME280;10465;42.686;23.364;2022-12-10T00:51:39;94332.16;;;10.42;88.34
20612;BME280;10465;42.686;23.364;2022-12-10T00:54:05;94328.28;;;10.30;88.49
20612;BME280;10465;42.686;23.364;2022-12-10T00:56:32;94354.13;;;10.25;89.04
20612;BME280;10465;42.686;23.364;2022-12-10T00:58:58;94347.88;;;10.12;89.56
20612;BME280;10465;42.686;23.364;2022-12-10T01:01:29;94349.13;;;10.32;89.46
20612;BME280;10465;42.686;23.364;2022-12-10T01:03:58;94353.31;;;10.33;89.16
20612;BME280;10465;42.686;23.364;2022-12-10T01:06:26;94361.25;;;10.33;89.42
20612;BME280;10465;42.686;23.364;2022-12-10T01:08:55;94371.38;;;10.39;88.96
20612;BME280;10465;42.686;23.364;2022-12-10T01:11:22;94362.66;;;10.39;88.93
20612;BME280;10465;42.686;23.364;2022-12-10T01:13:49;94331.84;;;10.43;88.55
20612;BME280;10465;42.686;23.364;2022-12-10T01:16:19;94320.78;;;10.50;88.17
20612;BME280;10465;42.686;23.364;2022-12-10T01:18:45;94338.22;;;10.42;89.13
20612;BME280;10465;42.686;23.364;2022-12-10T01:21:13;94349.03;;;9.85;92.03
20612;BME280;10465;42.686;23.364;2022-12-10T01:23:41;94327.50;;;10.12;91.47
20612;BME280;10465;42.686;23.364;2022-12-10T01:26:10;94297.50;;;10.08;90.49
20612;BME280;10465;42.686;23.364;2022-12-10T01:28:38;94310.41;;;10.27;89.76
20612;BME280;10465;42.686;23.364;2022-12-10T01:31:10;94350.78;;;10.54;88.77
20612;BME280;10465;42.686;23.364;2022-12-10T01:33:37;94345.38;;;10.24;89.98
20612;BME280;10465;42.686;23.364;2022-12-10T01:36:04;94317.34;;;10.40;89.75
20612;BME280;10465;42.686;23.364;2022-12-10T01:38:31;94281.78;;;10.29;89.76
20612;BME280;10465;42.686;23.364;2022-12-10T01:40:56;94278.97;;;10.17;89.16
20612;BME280;10465;42.686;23.364;2022-12-10T01:43:22;94308.81;;;10.35;88.98
20612;BME280;10465;42.686;23.364;2022-12-10T01:45:47;94327.91;;;10.58;89.11
20612;BME280;10465;42.686;23.364;2022-12-10T01:48:13;94301.47;;;10.49;88.61
20612;BME280;10465;42.686;23.364;2022-12-10T01:50:38;94301.59;;;10.53;88.78
20612;BME280;10465;42.686;23.364;2022-12-10T01:53:04;94321.59;;;10.15;90.67
20612;BME280;10465;42.686;23.364;2022-12-10T01:55:43;94306.66;;;10.28;90.33
20612;BME280;10465;42.686;23.364;2022-12-10T01:58:10;94322.16;;;10.47;89.93
20612;BME280;10465;42.686;23.364;2022-12-10T02:00:40;94301.22;;;10.33;90.17
20612;BME280;10465;42.686;23.364;2022-12-10T02:03:13;94308.31;;;10.50;91.15
20612;BME280;10465;42.686;23.364;2022-12-10T02:05:54;94315.91;;;10.52;91.31
20612;BME280;10465;42.686;23.364;2022-12-10T02:08:27;94317.16;;;10.54;91.71
20612;BME280;10465;42.686;23.364;2022-12-10T02:11:27;94318.38;;;10.57;91.87
20612;BME280;10465;42.686;23.364;2022-12-10T02:14:15;94321.31;;;10.64;91.25
20612;BME280;10465;42.686;23.364;2022-12-10T02:16:57;94334.16;;;10.53;91.46
20612;BME280;10465;42.686;23.364;2022-12-10T02:22:19;94309.34;;;10.67;91.62
20612;BME280;10465;42.686;23.364;2022-12-10T02:24:47;94329.75;;;10.66;91.24
20612;BME280;10465;42.686;23.364;2022-12-10T02:27:21;94306.75;;;10.49;91.39
20612;BME280;10465;42.686;23.364;2022-12-10T02:29:51;94300.38;;;10.50;92.12
20612;BME280;10465;42.686;23.364;2022-12-10T02:32:24;94286.63;;;10.66;92.21
20612;BME280;10465;42.686;23.364;2022-12-10T02:34:54;94293.63;;;10.61;92.01
20612;BME280;10465;42.686;23.364;2022-12-10T02:37:42;94293.63;;;10.61;91.87
20612;BME280;10465;42.686;23.364;2022-12-10T02:40:16;94281.13;;;10.71;91.25
20612;BME280;10465;42.686;23.364;2022-12-10T02:42:43;94291.91;;;10.66;91.59
20612;BME280;10465;42.686;23.364;2022-12-10T02:45:11;94257.75;;;10.43;91.22
20612;BME280;10465;42.686;23.364;2022-12-10T02:47:38;94275.50;;;10.72;91.20
20612;BME280;10465;42.686;23.364;2022-12-10T02:50:06;94285.78;;;10.74;91.25
20612;BME280;10465;42.686;23.364;2022-12-10T02:52:32;94258.44;;;10.61;91.68
20612;BME280;10465;42.686;23.364;2022-12-10T02:54:57;94273.06;;;10.67;92.10
20612;BME280;10465;42.686;23.364;2022-12-10T03:02:49;94283.09;;;10.82;91.55
20612;BME280;10465;42.686;23.364;2022-12-10T03:05:22;94290.28;;;10.82;91.26
20612;BME280;10465;42.686;23.364;2022-12-10T03:10:52;94292.00;;;10.78;91.88
20612;BME280;10465;42.686;23.364;2022-12-10T03:13:17;94291.25;;;10.30;94.22
20612;BME280;10465;42.686;23.364;2022-12-10T03:15:47;94295.66;;;10.56;93.70
20612;BME280;10465;42.686;23.364;2022-12-10T03:18:17;94249.84;;;10.34;93.34
20612;BME280;10465;42.686;23.364;2022-12-10T03:20:45;94288.44;;;10.74;93.52
20612;BME280;10465;42.686;23.364;2022-12-10T03:23:16;94294.53;;;10.19;95.05
20612;BME280;10465;42.686;23.364;2022-12-10T03:25:44;94289.50;;;10.43;94.96
20612;BME280;10465;42.686;23.364;2022-12-10T03:28:11;94268.75;;;10.54;94.19
20612;BME280;10465;42.686;23.364;2022-12-10T03:30:38;94282.53;;;10.68;93.17
20612;BME280;10465;42.686;23.364;2022-12-10T03:33:06;94250.97;;;10.63;93.28
20612;BME280;10465;42.686;23.364;2022-12-10T03:35:32;94263.19;;;10.76;92.24
20612;BME280;10465;42.686;23.364;2022-12-10T03:37:58;94287.56;;;10.91;91.87
20612;BME280;10465;42.686;23.364;2022-12-10T03:40:24;94281.44;;;10.99;91.97
20612;BME280;10465;42.686;23.364;2022-12-10T03:42:50;94278.94;;;11.02;92.05
20612;BME280;10465;42.686;23.364;2022-12-10T03:45:16;94271.44;;;11.04;91.36
20612;BME280;10465;42.686;23.364;2022-12-10T03:47:42;94279.72;;;11.03;91.12
20612;BME280;10465;42.686;23.364;2022-12-10T03:50:08;94260.19;;;11.07;91.63
20612;BME280;10465;42.686;23.364;2022-12-10T03:52:34;94261.63;;;11.05;91.50
20612;BME280;10465;42.686;23.364;2022-12-10T03:54:59;94254.97;;;10.99;91.09
20612;BME280;10465;42.686;23.364;2022-12-10T03:57:25;94233.72;;;10.86;91.62
20612;BME280;10465;42.686;23.364;2022-12-10T03:59:50;94255.22;;;11.06;91.84
20612;BME280;10465;42.686;23.364;2022-12-10T04:02:16;94249.81;;;11.02;92.29
20612;BME280;10465;42.686;23.364;2022-12-10T04:04:42;94240.28;;;10.80;93.22
20612;BME280;10465;42.686;23.364;2022-12-10T04:07:07;94244.66;;;10.76;94.58
20612;BME280;10465;42.686;23.364;2022-12-10T04:09:33;94250.09;;;10.80;94.80
20612;BME280;10465;42.686;23.364;2022-12-10T04:11:59;94259.63;;;10.72;95.57
20612;BME280;10465;42.686;23.364;2022-12-10T04:14:26;94261.63;;;10.75;96.20
20612;BME280;10465;42.686;23.364;2022-12-10T04:17:09;94252.88;;;10.83;96.24
20612;BME280;10465;42.686;23.364;2022-12-10T04:19:35;94261.41;;;10.89;96.11
20612;BME280;10465;42.686;23.364;2022-12-10T04:22:01;94242.16;;;10.80;96.35
20612;BME280;10465;42.686;23.364;2022-12-10T04:24:45;94242.63;;;10.82;96.83
20612;BME280;10465;42.686;23.364;2022-12-10T04:27:35;94264.19;;;10.93;97.14
20612;BME280;10465;42.686;23.364;2022-12-10T04:30:02;94222.63;;;10.63;97.62
20612;BME280;10465;42.686;23.364;2022-12-10T04:32:29;94272.00;;;10.89;98.33
20612;BME280;10465;42.686;23.364;2022-12-10T04:34:55;94273.91;;;10.80;98.85
20612;BME280;10465;42.686;23.364;2022-12-10T04:37:21;94274.41;;;10.73;99.55
20612;BME280;10465;42.686;23.364;2022-12-10T04:39:48;94270.16;;;10.81;99.21
20612;BME280;10465;42.686;23.364;2022-12-10T04:42:14;94280.91;;;10.84;99.90
20612;BME280;10465;42.686;23.364;2022-12-10T04:44:39;94273.16;;;10.79;99.85
20612;BME280;10465;42.686;23.364;2022-12-10T04:47:06;94257.44;;;10.74;100.00
20612;BME280;10465;42.686;23.364;2022-12-10T04:49:32;94245.34;;;10.64;100.00
20612;BME280;10465;42.686;23.364;2022-12-10T04:51:58;94252.41;;;10.81;100.00
20612;BME280;10465;42.686;23.364;2022-12-10T04:54:24;94270.25;;;10.93;100.00
20612;BME280;10465;42.686;23.364;2022-12-10T04:56:49;94281.84;;;10.80;100.00
20612;BME280;10465;42.686;23.364;2022-12-10T04:59:15;94289.47;;;10.52;100.00
20612;BME280;10465;42.686;23.364;2022-12-10T05:01:40;94260.09;;;10.36;100.00
20612;BME280;10465;42.686;23.364;2022-12-10T05:04:09;94247.94;;;10.44;100.00
20612;BME280;10465;42.686;23.364;2022-12-10T05:06:34;94279.13;;;10.68;100.00
20612;BME280;10465;42.686;23.364;2022-12-10T05:09:00;94285.19;;;10.68;100.00
20612;BME280;10465;42.686;23.364;2022-12-10T05:11:28;94277.75;;;10.61;100.00
20612;BME280;10465;42.686;23.364;2022-12-10T05:13:54;94288.88;;;10.76;100.00
20612;BME280;10465;42.686;23.364;2022-12-10T05:16:22;94279.97;;;10.80;100.00
20612;BME280;10465;42.686;23.364;2022-12-10T05:18:49;94276.06;;;10.86;100.00
20612;BME280;10465;42.686;23.364;2022-12-10T05:21:17;94271.06;;;10.85;100.00
20612;BME280;10465;42.686;23.364;2022-12-10T05:23:45;94251.50;;;10.77;100.00
20612;BME280;10465;42.686;23.364;2022-12-10T05:28:45;94255.19;;;10.85;100.00
20612;BME280;10465;42.686;23.364;2022-12-10T05:31:16;94254.13;;;10.86;100.00
20612;BME280;10465;42.686;23.364;2022-12-10T05:33:42;94242.16;;;10.80;100.00
20612;BME280;10465;42.686;23.364;2022-12-10T05:36:10;94238.16;;;10.74;100.00
20612;BME280;10465;42.686;23.364;2022-12-10T05:38:37;94259.84;;;10.88;100.00
20612;BME280;10465;42.686;23.364;2022-12-10T05:41:03;94235.50;;;10.74;100.00
20612;BME280;10465;42.686;23.364;2022-12-10T05:43:30;94246.66;;;10.79;100.00
20612;BME280;10465;42.686;23.364;2022-12-10T05:46:04;94243.44;;;10.74;100.00
20612;BME280;10465;42.686;23.364;2022-12-10T05:48:30;94257.59;;;10.78;100.00
20612;BME280;10465;42.686;23.364;2022-12-10T05:50:56;94287.72;;;10.94;100.00
20612;BME280;10465;42.686;23.364;2022-12-10T05:53:22;94287.25;;;10.92;100.00
20612;BME280;10465;42.686;23.364;2022-12-10T05:55:47;94279.44;;;10.96;100.00
20612;BME280;10465;42.686;23.364;2022-12-10T05:58:13;94266.75;;;10.80;100.00
20612;BME280;10465;42.686;23.364;2022-12-10T06:00:40;94282.66;;;11.01;100.00
20612;BME280;10465;42.686;23.364;2022-12-10T06:03:06;94276.09;;;11.07;100.00
20612;BME280;10465;42.686;23.364;2022-12-10T06:05:39;94285.09;;;11.15;100.00
20612;BME280;10465;42.686;23.364;2022-12-10T06:08:06;94266.63;;;10.98;100.00
20612;BME280;10465;42.686;23.364;2022-12-10T06:10:34;94286.97;;;11.14;100.00
20612;BME280;10465;42.686;23.364;2022-12-10T06:13:00;94295.97;;;11.13;100.00
20612;BME280;10465;42.686;23.364;2022-12-10T06:15:26;94278.13;;;11.02;100.00
20612;BME280;10465;42.686;23.364;2022-12-10T06:17:51;94262.50;;;10.88;100.00
20612;BME280;10465;42.686;23.364;2022-12-10T06:20:17;94270.38;;;10.97;100.00
20612;BME280;10465;42.686;23.364;2022-12-10T06:22:42;94275.91;;;11.12;100.00
20612;BME280;10465;42.686;23.364;2022-12-10T06:25:08;94271.44;;;11.04;100.00
20612;BME280;10465;42.686;23.364;2022-12-10T06:27:33;94295.22;;;11.13;100.00
20612;BME280;10465;42.686;23.364;2022-12-10T06:29:59;94284.81;;;11.08;100.00
20612;BME280;10465;42.686;23.364;2022-12-10T06:32:24;94279.09;;;10.97;100.00
20612;BME280;10465;42.686;23.364;2022-12-10T06:34:50;94271.91;;;11.06;100.00
20612;BME280;10465;42.686;23.364;2022-12-10T06:37:15;94240.28;;;11.01;100.00
20612;BME280;10465;42.686;23.364;2022-12-10T06:39:41;94207.53;;;10.85;100.00
20612;BME280;10465;42.686;23.364;2022-12-10T06:42:06;94254.91;;;11.07;100.00
20612;BME280;10465;42.686;23.364;2022-12-10T06:44:33;94250.31;;;10.96;100.00
20612;BME280;10465;42.686;23.364;2022-12-10T06:46:59;94264.81;;;10.89;100.00
20612;BME280;10465;42.686;23.364;2022-12-10T06:49:24;94265.78;;;10.85;100.00
20612;BME280;10465;42.686;23.364;2022-12-10T06:51:49;94263.88;;;10.94;100.00
20612;BME280;10465;42.686;23.364;2022-12-10T06:54:15;94279.78;;;11.15;100.00
20612;BME280;10465;42.686;23.364;2022-12-10T06:56:40;94195.56;;;10.58;100.00
20612;BME280;10465;42.686;23.364;2022-12-10T06:59:06;94269.03;;;10.91;100.00
20612;BME280;10465;42.686;23.364;2022-12-10T07:01:31;94297.34;;;10.99;100.00
20612;BME280;10465;42.686;23.364;2022-12-10T07:03:57;94316.13;;;11.06;100.00
20612;BME280;10465;42.686;23.364;2022-12-10T07:06:23;94296.19;;;11.08;100.00
20612;BME280;10465;42.686;23.364;2022-12-10T07:08:50;94304.34;;;11.24;100.00
20612;BME280;10465;42.686;23.364;2022-12-10T07:11:18;94300.41;;;11.30;100.00
20612;BME280;10465;42.686;23.364;2022-12-10T07:13:44;94292.47;;;11.30;100.00
20612;BME280;10465;42.686;23.364;2022-12-10T07:16:18;94270.88;;;11.20;100.00
20612;BME280;10465;42.686;23.364;2022-12-10T07:18:44;94270.53;;;11.21;100.00
20612;BME280;10465;42.686;23.364;2022-12-10T07:23:43;94287.09;;;11.39;100.00
20612;BME280;10465;42.686;23.364;2022-12-10T07:26:09;94285.53;;;11.38;100.00
20612;BME280;10465;42.686;23.364;2022-12-10T07:28:34;94267.13;;;11.42;100.00
20612;BME280;10465;42.686;23.364;2022-12-10T07:31:04;94263.63;;;11.50;100.00
20612;BME280;10465;42.686;23.364;2022-12-10T07:33:30;94231.06;;;11.28;100.00
20612;BME280;10465;42.686;23.364;2022-12-10T07:35:56;94221.88;;;11.05;100.00
20612;BME280;10465;42.686;23.364;2022-12-10T07:38:22;94249.03;;;11.23;100.00
20612;BME280;10465;42.686;23.364;2022-12-10T07:40:48;94256.22;;;11.22;100.00
20612;BME280;10465;42.686;23.364;2022-12-10T07:43:14;94268.38;;;10.94;100.00
20612;BME280;10465;42.686;23.364;2022-12-10T07:45:39;94241.41;;;11.00;100.00
20612;BME280;10465;42.686;23.364;2022-12-10T07:48:05;94238.81;;;11.12;100.00
20612;BME280;10465;42.686;23.364;2022-12-10T07:50:30;94241.34;;;11.09;100.00
20612;BME280;10465;42.686;23.364;2022-12-10T07:52:56;94229.91;;;10.96;100.00
20612;BME280;10465;42.686;23.364;2022-12-10T07:55:21;94270.88;;;11.41;100.00
20612;BME280;10465;42.686;23.364;2022-12-10T07:57:46;94244.84;;;11.43;100.00
20612;BME280;10465;42.686;23.364;2022-12-10T08:00:12;94250.97;;;11.55;100.00
20612;BME280;10465;42.686;23.364;2022-12-10T08:02:38;94247.53;;;11.55;100.00
20612;BME280;10465;42.686;23.364;2022-12-10T08:05:04;94253.31;;;11.69;100.00
20612;BME280;10465;42.686;23.364;2022-12-10T08:07:29;94233.09;;;11.64;100.00
20612;BME280;10465;42.686;23.364;2022-12-10T08:09:55;94240.75;;;11.78;100.00
20612;BME280;10465;42.686;23.364;2022-12-10T08:12:20;94227.94;;;11.80;100.00
20612;BME280;10465;42.686;23.364;2022-12-10T08:14:46;94237.78;;;11.80;100.00
20612;BME280;10465;42.686;23.364;2022-12-10T08:17:11;94181.09;;;11.39;100.00
20612;BME280;10465;42.686;23.364;2022-12-10T08:19:36;94243.09;;;11.80;100.00
20612;BME280;10465;42.686;23.364;2022-12-10T08:22:03;94224.41;;;11.76;100.00
20612;BME280;10465;42.686;23.364;2022-12-10T08:24:28;94241.72;;;11.95;100.00
20612;BME280;10465;42.686;23.364;2022-12-10T08:26:53;94246.69;;;11.96;100.00
20612;BME280;10465;42.686;23.364;2022-12-10T08:29:19;94236.34;;;12.03;100.00
20612;BME280;10465;42.686;23.364;2022-12-10T08:31:44;94236.44;;;12.07;100.00
20612;BME280;10465;42.686;23.364;2022-12-10T08:34:15;94194.84;;;11.86;100.00
20612;BME280;10465;42.686;23.364;2022-12-10T08:36:42;94217.97;;;11.98;100.00
20612;BME280;10465;42.686;23.364;2022-12-10T08:39:07;94222.72;;;12.05;100.00
20612;BME280;10465;42.686;23.364;2022-12-10T08:41:35;94209.91;;;12.07;100.00
20612;BME280;10465;42.686;23.364;2022-12-10T08:44:01;94218.22;;;12.18;100.00
20612;BME280;10465;42.686;23.364;2022-12-10T08:46:27;94202.50;;;12.00;100.00
20612;BME280;10465;42.686;23.364;2022-12-10T08:48:54;94205.41;;;12.07;100.00
20612;BME280;10465;42.686;23.364;2022-12-10T08:51:20;94195.97;;;12.10;100.00
20612;BME280;10465;42.686;23.364;2022-12-10T08:53:46;94186.38;;;12.18;100.00
20612;BME280;10465;42.686;23.364;2022-12-10T08:56:12;94175.53;;;12.23;100.00
20612;BME280;10465;42.686;23.364;2022-12-10T08:58:38;94174.00;;;12.46;100.00
20612;BME280;10465;42.686;23.364;2022-12-10T09:01:08;94177.25;;;12.80;100.00
20612;BME280;10465;42.686;23.364;2022-12-10T09:03:34;94165.56;;;12.69;100.00
20612;BME280;10465;42.686;23.364;2022-12-10T09:06:08;94177.06;;;12.85;100.00
20612;BME280;10465;42.686;23.364;2022-12-10T09:08:34;94199.38;;;13.08;100.00
20612;BME280;10465;42.686;23.364;2022-12-10T09:11:08;94187.72;;;13.13;100.00
20612;BME280;10465;42.686;23.364;2022-12-10T09:13:34;94187.59;;;13.22;100.00
20612;BME280;10465;42.686;23.364;2022-12-10T09:15:59;94182.50;;;13.29;99.52
20612;BME280;10465;42.686;23.364;2022-12-10T09:18:25;94182.91;;;13.31;98.57
20612;BME280;10465;42.686;23.364;2022-12-10T09:20:50;94162.91;;;13.21;98.26
20612;BME280;10465;42.686;23.364;2022-12-10T09:23:16;94175.81;;;13.35;98.47
20612;BME280;10465;42.686;23.364;2022-12-10T09:25:42;94150.16;;;13.27;97.58
20612;BME280;10465;42.686;23.364;2022-12-10T09:28:07;94162.78;;;13.30;97.29
20612;BME280;10465;42.686;23.364;2022-12-10T09:30:33;94166.31;;;13.22;97.71
20612;BME280;10465;42.686;23.364;2022-12-10T09:32:58;94164.66;;;13.29;98.04
20612;BME280;10465;42.686;23.364;2022-12-10T09:35:24;94158.91;;;13.27;98.29
20612;BME280;10465;42.686;23.364;2022-12-10T09:37:49;94168.97;;;13.34;98.76
20612;BME280;10465;42.686;23.364;2022-12-10T09:40:16;94149.50;;;13.30;98.12
20612;BME280;10465;42.686;23.364;2022-12-10T09:42:45;94155.63;;;13.46;98.01
20612;BME280;10465;42.686;23.364;2022-12-10T09:45:16;94133.06;;;13.56;97.92
20612;BME280;10465;42.686;23.364;2022-12-10T09:51:37;94113.34;;;13.73;97.61
20612;BME280;10465;42.686;23.364;2022-12-10T09:53:44;94120.00;;;13.95;96.87
20612;BME280;10465;42.686;23.364;2022-12-10T09:56:21;94113.19;;;13.97;96.62
20612;BME280;10465;42.686;23.364;2022-12-10T09:58:47;94129.13;;;14.29;95.96
20612;BME280;10465;42.686;23.364;2022-12-10T10:01:14;94130.00;;;14.49;95.65
20612;BME280;10465;42.686;23.364;2022-12-10T10:03:41;94112.09;;;14.65;93.77
20612;BME280;10465;42.686;23.364;2022-12-10T10:06:13;94127.75;;;15.25;91.50
20612;BME280;10465;42.686;23.364;2022-12-10T10:08:42;94099.59;;;15.66;88.35
20612;BME280;10465;42.686;23.364;2022-12-10T10:11:17;94120.94;;;16.39;84.79
20612;BME280;10465;42.686;23.364;2022-12-10T10:13:46;94117.59;;;16.98;80.93
20612;BME280;10465;42.686;23.364;2022-12-10T10:19:00;94112.91;;;17.55;76.07
20612;BME280;10465;42.686;23.364;2022-12-10T10:21:34;94104.56;;;17.64;74.62
20612;BME280;10465;42.686;23.364;2022-12-10T10:24:02;94123.88;;;17.81;74.29
20612;BME280;10465;42.686;23.364;2022-12-10T10:26:29;94107.25;;;17.64;73.98
20612;BME280;10465;42.686;23.364;2022-12-10T10:29:00;94099.25;;;17.68;72.84
20612;BME280;10465;42.686;23.364;2022-12-10T10:31:32;94103.09;;;17.70;73.59
20612;BME280;10465;42.686;23.364;2022-12-10T10:34:06;94105.78;;;17.74;74.95
20612;BME280;10465;42.686;23.364;2022-12-10T10:36:37;94070.03;;;17.52;73.94
20612;BME280;10465;42.686;23.364;2022-12-10T10:39:31;94067.63;;;17.40;74.31
20612;BME280;10465;42.686;23.364;2022-12-10T10:41:58;94070.94;;;17.26;75.38
20612;BME280;10465;42.686;23.364;2022-12-10T10:44:27;94068.47;;;17.10;76.04
20612;BME280;10465;42.686;23.364;2022-12-10T10:46:54;94060.59;;;16.91;76.56
20612;BME280;10465;42.686;23.364;2022-12-10T10:49:28;94072.69;;;16.81;76.59
20612;BME280;10465;42.686;23.364;2022-12-10T10:51:59;94063.72;;;16.40;78.26
20612;BME280;10465;42.686;23.364;2022-12-10T10:59:53;94064.50;;;16.14;80.40
20612;BME280;10465;42.686;23.364;2022-12-10T11:02:36;94008.88;;;15.66;81.64
20612;BME280;10465;42.686;23.364;2022-12-10T11:10:00;94040.47;;;15.87;82.74
20612;BME280;10465;42.686;23.364;2022-12-10T11:12:33;94041.19;;;15.84;83.30
20612;BME280;10465;42.686;23.364;2022-12-10T11:14:58;94031.66;;;15.64;84.57
20612;BME280;10465;42.686;23.364;2022-12-10T11:17:26;94011.25;;;15.48;85.39
20612;BME280;10465;42.686;23.364;2022-12-10T11:20:16;94010.28;;;15.60;85.74
20612;BME280;10465;42.686;23.364;2022-12-10T11:22:54;93989.53;;;15.50;86.63
20612;BME280;10465;42.686;23.364;2022-12-10T11:30:31;93927.16;;;15.08;86.95
20612;BME280;10465;42.686;23.364;2022-12-10T11:38:29;93988.94;;;15.60;87.75
20612;BME280;10465;42.686;23.364;2022-12-10T11:43:50;93988.97;;;15.64;86.83
20612;BME280;10465;42.686;23.364;2022-12-10T11:49:39;93982.63;;;15.45;85.81
20612;BME280;10465;42.686;23.364;2022-12-10T11:52:40;93991.81;;;15.48;86.21
20612;BME280;10465;42.686;23.364;2022-12-10T12:00:51;93973.97;;;15.29;87.40
20612;BME280;10465;42.686;23.364;2022-12-10T12:11:55;93967.09;;;15.28;89.77
20612;BME280;10465;42.686;23.364;2022-12-10T12:14:27;93930.84;;;15.00;89.55
20612;BME280;10465;42.686;23.364;2022-12-10T12:17:03;93924.25;;;14.71;91.37
20612;BME280;10465;42.686;23.364;2022-12-10T12:19:46;93928.91;;;14.78;91.12
20612;BME280;10465;42.686;23.364;2022-12-10T12:24:50;93934.06;;;14.67;92.19
20612;BME280;10465;42.686;23.364;2022-12-10T12:27:35;93930.34;;;14.72;92.24
20612;BME280;10465;42.686;23.364;2022-12-10T12:30:06;93930.88;;;14.81;92.17
20612;BME280;10465;42.686;23.364;2022-12-10T12:35:14;93930.59;;;14.86;92.53
20612;BME280;10465;42.686;23.364;2022-12-10T12:37:50;93912.09;;;14.74;92.15
20612;BME280;10465;42.686;23.364;2022-12-10T12:40:30;93905.31;;;14.76;92.01
20612;BME280;10465;42.686;23.364;2022-12-10T12:43:04;93888.03;;;14.67;92.42
20612;BME280;10465;42.686;23.364;2022-12-10T12:45:48;93889.84;;;14.63;93.48
20612;BME280;10465;42.686;23.364;2022-12-10T12:48:18;93903.72;;;14.72;93.79
20612;BME280;10465;42.686;23.364;2022-12-10T12:51:10;93896.41;;;14.69;94.39
20612;BME280;10465;42.686;23.364;2022-12-10T12:53:36;93892.91;;;14.65;93.99
20612;BME280;10465;42.686;23.364;2022-12-10T13:01:38;93880.31;;;14.62;94.28
20612;BME280;10465;42.686;23.364;2022-12-10T13:04:05;93890.25;;;14.65;94.00
20612;BME280;10465;42.686;23.364;2022-12-10T13:06:36;93882.19;;;14.61;94.06
20612;BME280;10465;42.686;23.364;2022-12-10T13:12:46;93850.59;;;14.59;93.81
20612;BME280;10465;42.686;23.364;2022-12-10T13:15:20;93874.97;;;14.62;93.95
20612;BME280;10465;42.686;23.364;2022-12-10T13:17:31;93868.25;;;14.48;94.24
20612;BME280;10465;42.686;23.364;2022-12-10T13:23:03;93862.38;;;14.39;94.69
20612;BME280;10465;42.686;23.364;2022-12-10T13:28:27;93864.16;;;14.51;94.40
20612;BME280;10465;42.686;23.364;2022-12-10T13:41:33;93823.28;;;14.43;94.09
20612;BME280;10465;42.686;23.364;2022-12-10T13:44:34;93807.72;;;14.45;92.70
20612;BME280;10465;42.686;23.364;2022-12-10T13:49:52;93809.84;;;14.36;92.62
20612;BME280;10465;42.686;23.364;2022-12-10T13:52:51;93812.31;;;14.25;93.24
20612;BME280;10465;42.686;23.364;2022-12-10T13:59:08;93818.41;;;14.26;93.36
20612;BME280;10465;42.686;23.364;2022-12-10T14:01:51;93828.03;;;14.34;92.81
20612;BME280;10465;42.686;23.364;2022-12-10T14:07:24;93817.84;;;14.36;92.04
20612;BME280;10465;42.686;23.364;2022-12-10T14:09:53;93817.75;;;14.32;91.76
20612;BME280;10465;42.686;23.364;2022-12-10T14:12:32;93819.38;;;14.37;91.37
20612;BME280;10465;42.686;23.364;2022-12-10T14:15:03;93819.78;;;14.39;90.86
20612;BME280;10465;42.686;23.364;2022-12-10T14:17:40;93804.38;;;14.29;90.90
20612;BME280;10465;42.686;23.364;2022-12-10T14:20:12;93796.34;;;14.25;91.02
20612;BME280;10465;42.686;23.364;2022-12-10T14:22:50;93796.28;;;14.22;91.55
20612;BME280;10465;42.686;23.364;2022-12-10T14:25:19;93808.66;;;14.33;91.61
20612;BME280;10465;42.686;23.364;2022-12-10T14:27:53;93786.06;;;14.24;91.17
20612;BME280;10465;42.686;23.364;2022-12-10T14:30:25;93784.22;;;14.28;91.32
20612;BME280;10465;42.686;23.364;2022-12-10T14:32:56;93801.44;;;14.34;91.20
20612;BME280;10465;42.686;23.364;2022-12-10T14:35:26;93763.47;;;14.14;91.17
20612;BME280;10465;42.686;23.364;2022-12-10T14:37:54;93783.47;;;14.27;91.52
20612;BME280;10465;42.686;23.364;2022-12-10T14:40:36;93774.44;;;14.13;92.12